Amber Lagoon — V7FS4 — position and weather

sailwx.info

Track history (hours):
 
Tides and Currents Weather Stations Pressure Air Temp Water Temp Dewpoint Dewpoint Depression Visibility Wind Speed Wind Dir Waves Ship Positions

Amber Lagoon

Last reported at 2014-Oct-28 15:19 UTC. Time now 2014-Oct-31 07:47 UTC.
Position S 28°52' E 032°16'.

Length 192 m; draft 9 m.

Type: Cargo ship. MMSI: 538090116.

Date/timePositionNaut miles runAvg speedWind from/ knotsBaromVisibWave heightAir tempDewpointWater temp
2014-Oct-28 15:19S 28°52' E 032°16'6 7.2
2014-Oct-28 14:33S 28°57' E 032°13'18 7.7
2014-Oct-28 12:12S 29°09' E 031°57'10 9.4
2014-Oct-28 11:07S 29°16' E 031°49'810.1
2014-Oct-28 10:18S 29°22' E 031°43'811.0
2014-Oct-28 09:33S 29°29' E 031°37'1111.1
2014-Oct-28 08:33S 29°38' E 031°29'1111.1
2014-Oct-28 07:33S 29°46' E 031°21'1111.3
2014-Oct-28 06:33S 29°51' E 031°09'8 8.1
2014-Oct-28 05:33S 29°53' E 031°00'0 0.2
2014-Oct-28 04:18S 29°53' E 031°00'0 0.0
2014-Oct-28 03:30S 29°53' E 031°00'0 0.0
2014-Oct-28 02:30S 29°53' E 031°00'0 0.0
2014-Oct-28 01:30S 29°53' E 031°00'0 0.0
2014-Oct-28 00:30S 29°53' E 031°00'0 0.0
2014-Oct-27 23:24S 29°53' E 031°00'0 0.0
2014-Oct-27 22:30S 29°53' E 031°00'0 0.0
2014-Oct-27 21:30S 29°53' E 031°00'0 0.0
2014-Oct-27 20:30S 29°53' E 031°00'0 0.0
2014-Oct-27 19:30S 29°53' E 031°00'0 0.0
2014-Oct-27 18:30S 29°53' E 031°00'0 0.0
2014-Oct-27 17:24S 29°53' E 031°00'0 0.0
2014-Oct-27 16:12S 29°53' E 031°00'0 0.0
2014-Oct-27 15:30S 29°53' E 031°00'0 0.0
2014-Oct-27 14:30S 29°53' E 031°00'0 0.0
2014-Oct-27 13:30S 29°53' E 031°00'0 0.0
2014-Oct-27 12:30S 29°53' E 031°00'0 0.0
2014-Oct-27 11:30S 29°53' E 031°00'0 0.0
2014-Oct-27 10:06S 29°53' E 031°00'0 0.0
2014-Oct-27 09:24S 29°53' E 031°00'0 0.0
2014-Oct-27 08:30S 29°53' E 031°00'0 0.0
2014-Oct-27 07:30S 29°53' E 031°00'0 0.0
2014-Oct-27 06:30S 29°53' E 031°00'0 0.0
2014-Oct-27 05:30S 29°53' E 031°00'0 0.0
2014-Oct-27 04:30S 29°53' E 031°00'0 0.0
2014-Oct-27 03:30S 29°53' E 031°00'0 0.0
2014-Oct-27 02:30S 29°53' E 031°00'0 0.0
2014-Oct-27 01:24S 29°53' E 031°00'0 0.0
2014-Oct-27 00:30S 29°53' E 031°00'0 0.0
2014-Oct-26 23:29S 29°53' E 031°00'0 0.0
2014-Oct-26 22:29S 29°53' E 031°00'0 0.0
2014-Oct-26 21:29S 29°53' E 031°00'0 0.0
2014-Oct-26 20:29S 29°53' E 031°00'0 0.0
2014-Oct-26 19:29S 29°53' E 031°00'0 0.0
2014-Oct-26 18:17S 29°53' E 031°00'0 0.0
2014-Oct-26 17:29S 29°53' E 031°00'  
Track history (hours):
 
Tides and Currents Weather Stations Pressure Air Temp Water Temp Dewpoint Dewpoint Depression Visibility Wind Speed Wind Dir Waves Ship Positions

Amber Lagoon

Last reported at 2014-Oct-28 15:19 UTC. Time now 2014-Oct-31 07:47 UTC.
Position S 28°52' E 032°16'.

Length 192 m; draft 9 m.

Type: Cargo ship. MMSI: 538090116.

Date/timePositionNaut miles runAvg speedWind from/ knotsBaromVisibWave heightAir tempDewpointWater temp
2014-Oct-28 15:19S 28°52' E 032°16'6 7.2
2014-Oct-28 14:33S 28°57' E 032°13'18 7.7
2014-Oct-28 12:12S 29°09' E 031°57'10 9.4
2014-Oct-28 11:07S 29°16' E 031°49'810.1
2014-Oct-28 10:18S 29°22' E 031°43'811.0
2014-Oct-28 09:33S 29°29' E 031°37'1111.1
2014-Oct-28 08:33S 29°38' E 031°29'1111.1
2014-Oct-28 07:33S 29°46' E 031°21'1111.3
2014-Oct-28 06:33S 29°51' E 031°09'8 8.1
2014-Oct-28 05:33S 29°53' E 031°00'0 0.2
2014-Oct-28 04:18S 29°53' E 031°00'0 0.0
2014-Oct-28 03:30S 29°53' E 031°00'0 0.0
2014-Oct-28 02:30S 29°53' E 031°00'0 0.0
2014-Oct-28 01:30S 29°53' E 031°00'0 0.0
2014-Oct-28 00:30S 29°53' E 031°00'0 0.0
2014-Oct-27 23:24S 29°53' E 031°00'0 0.0
2014-Oct-27 22:30S 29°53' E 031°00'0 0.0
2014-Oct-27 21:30S 29°53' E 031°00'0 0.0
2014-Oct-27 20:30S 29°53' E 031°00'0 0.0
2014-Oct-27 19:30S 29°53' E 031°00'0 0.0
2014-Oct-27 18:30S 29°53' E 031°00'0 0.0
2014-Oct-27 17:24S 29°53' E 031°00'0 0.0
2014-Oct-27 16:12S 29°53' E 031°00'0 0.0
2014-Oct-27 15:30S 29°53' E 031°00'0 0.0
2014-Oct-27 14:30S 29°53' E 031°00'0 0.0
2014-Oct-27 13:30S 29°53' E 031°00'0 0.0
2014-Oct-27 12:30S 29°53' E 031°00'0 0.0
2014-Oct-27 11:30S 29°53' E 031°00'0 0.0
2014-Oct-27 10:06S 29°53' E 031°00'0 0.0
2014-Oct-27 09:24S 29°53' E 031°00'0 0.0
2014-Oct-27 08:30S 29°53' E 031°00'0 0.0
2014-Oct-27 07:30S 29°53' E 031°00'0 0.0
2014-Oct-27 06:30S 29°53' E 031°00'0 0.0
2014-Oct-27 05:30S 29°53' E 031°00'0 0.0
2014-Oct-27 04:30S 29°53' E 031°00'0 0.0
2014-Oct-27 03:30S 29°53' E 031°00'0 0.0
2014-Oct-27 02:30S 29°53' E 031°00'0 0.0
2014-Oct-27 01:24S 29°53' E 031°00'0 0.0
2014-Oct-27 00:30S 29°53' E 031°00'0 0.0
2014-Oct-26 23:29S 29°53' E 031°00'0 0.0
2014-Oct-26 22:29S 29°53' E 031°00'0 0.0
2014-Oct-26 21:29S 29°53' E 031°00'0 0.0
2014-Oct-26 20:29S 29°53' E 031°00'0 0.0
2014-Oct-26 19:29S 29°53' E 031°00'0 0.0
2014-Oct-26 18:17S 29°53' E 031°00'0 0.0
2014-Oct-26 17:29S 29°53' E 031°00'  

Dump ship's entire track history